CZUM

Details ICAO CZUM (ZUM)
Name CHURCHILL FALLS
Region Canada
Timezone America/Goose_Bay (UTC-3.0)
Plans Departing 19
Arriving 10
Stats Elevation 1,442 ft / 440 m (AMSL)
Location 53.562625° -64.105935°
Runways 1
Magnetic Variation 20.692° W
Sunrise 2018-05-27 08:00:16 UTC / 2018-05-27 05:00:16 Local
Sunset 2018-05-28 00:29:48 UTC / 2018-05-27 21:29:48 Local
Advertisement - Login to hide

Runways

ID Width Length Bearing (true) Bearing (mag) Surface Threshold Offset Overrun Length
13 150 ft / 46 m 5,484 ft / 1,671 m 104.57° 125.26° Asphalt 0 ft / 0 m 0 ft / 0 m
31 150 ft / 46 m 5,484 ft / 1,671 m 284.59° 305.28° Asphalt 0 ft / 0 m 0 ft / 0 m

Map

Weather


0- 5 10 15 20 25 30 35+ Temperature / ° C

Clouds and Precipitation
Forecast for 2018-05-27 18:00 UTC. Updated an hour ago

Ground ~20,000 ft ~40,000 ft Winds

METAR

CZUM 271800Z AUTO 33008KT 9SM CLR 06/M09 A3015 RMK SLP237

TAF

TAF CZUM 271345Z 2714/2802 33010KT P6SM SCT120 BECMG 2717/2719 14008KT RMK FCST BASED ON AUTO OBS. NXT FCST BY 272000Z

Frequencies

Recorded 122.55 MHz AWOS
Unicom 123.50 MHz CTAF
Warning: Do not use this data for real-world aviation or navigation. No guarantee of current accuracy is given.